Time;durP1;ratioP1;P1;durP2;ratioP2;P2;SDS_P1;SDS_P2;PMS_P1;PMS_P2;Temp;Humidity;BMP_temperature;BMP_pressure;BME280_temperature;BME280_humidity;BME280_pressure;Samples;Min_cycle;Max_cycle;Signal;HPM_P1;HPM_P2
2022/06/09 00:00:50;;;;;;;4.43;0.98;;;13.70;99.90;;;-146.41;100.00;57768.22;4986119;28;20125;-65
2022/06/09 00:03:33;;;;;;;5.30;1.10;;;13.60;99.90;;;-146.41;100.00;57768.22;4968931;28;20050;-65
2022/06/09 00:06:00;;;;;;;4.78;1.00;;;13.60;99.90;;;-146.41;100.00;57768.22;4967266;28;20041;-66
2022/06/09 00:08:29;;;;;;;5.95;1.00;;;13.60;99.90;;;-146.41;100.00;57768.22;4987970;28;20056;-65
2022/06/09 00:11:02;;;;;;;4.25;0.95;;;13.60;99.90;;;-146.41;100.00;57768.22;4985225;28;20169;-66
2022/06/09 00:13:29;;;;;;;3.97;1.00;;;13.60;99.90;;;-146.41;100.00;57768.22;4982391;28;20133;-66
2022/06/09 00:15:57;;;;;;;5.55;1.05;;;13.60;99.90;;;-146.41;100.00;57768.22;4986515;28;20129;-65
2022/06/09 00:18:24;;;;;;;3.47;1.08;;;13.70;99.90;;;-146.41;100.00;57768.22;4987402;28;20116;-65
2022/06/09 00:20:51;;;;;;;4.32;1.27;;;13.60;99.90;;;-146.41;100.00;57768.22;4990603;28;20116;-66
2022/06/09 00:23:19;;;;;;;5.20;1.20;;;13.60;99.90;;;-146.41;100.00;57768.22;4984312;28;20751;-64
2022/06/09 00:25:47;;;;;;;5.45;1.30;;;13.60;99.90;;;-146.41;100.00;57768.22;4989609;28;20453;-65
2022/06/09 00:28:14;;;;;;;4.78;1.23;;;13.60;99.90;;;-146.41;100.00;57768.22;4984493;28;20476;-66
2022/06/09 00:30:42;;;;;;;5.05;1.05;;;13.60;99.90;;;-146.41;100.00;57768.22;4990591;28;20580;-65
2022/06/09 00:33:09;;;;;;;6.63;1.30;;;13.60;99.90;;;-146.41;100.00;57768.22;4990380;28;20054;-65
2022/06/09 00:35:36;;;;;;;4.53;1.35;;;13.50;99.90;;;-146.41;100.00;57768.22;4986140;28;20196;-67
2022/06/09 00:38:03;;;;;;;6.57;1.52;;;13.50;99.90;;;-146.41;100.00;57768.22;4990833;28;20050;-67
2022/06/09 00:40:30;;;;;;;5.63;2.15;;;13.40;99.90;;;-146.41;100.00;57768.22;4983339;28;20218;-66
2022/06/09 00:43:01;;;;;;;7.53;2.10;;;13.40;99.90;;;-146.41;100.00;57768.22;4990322;28;20041;-66
2022/06/09 00:45:37;;;;;;;5.03;1.98;;;13.50;99.90;;;-146.41;100.00;57768.22;4988060;28;20046;-64
2022/06/09 00:48:35;;;;;;;5.28;1.63;;;13.40;99.90;;;-146.41;100.00;57768.22;4989326;28;20524;-66
2022/06/09 00:51:21;;;;;;;8.07;2.15;;;13.30;99.90;;;-146.41;100.00;57768.22;4984333;28;20477;-67
2022/06/09 00:53:53;;;;;;;6.55;2.33;;;13.20;99.90;;;-146.41;100.00;57768.22;4985818;28;20088;-66
2022/06/09 00:56:21;;;;;;;7.30;2.22;;;13.20;99.90;;;-146.41;100.00;57768.22;4991323;28;20054;-66
2022/06/09 00:58:51;;;;;;;8.52;2.80;;;13.20;99.90;;;-146.41;100.00;57768.22;4986296;28;20092;-66
2022/06/09 01:01:19;;;;;;;7.80;3.00;;;13.20;99.90;;;-146.41;100.00;57768.22;4987515;28;20141;-66
2022/06/09 01:03:55;;;;;;;12.35;2.83;;;13.10;99.90;;;-146.41;100.00;57768.22;4969679;28;20054;-66
2022/06/09 01:06:27;;;;;;;8.07;3.00;;;13.10;99.90;;;-146.41;100.00;57768.22;4971729;28;20073;-66
2022/06/09 01:09:14;;;;;;;10.77;3.97;;;13.10;99.90;;;-146.41;100.00;57768.22;4972398;28;20145;-67
2022/06/09 01:11:42;;;;;;;8.68;3.97;;;13.00;99.90;;;-146.41;100.00;57768.22;4983661;28;20105;-66
2022/06/09 01:14:13;;;;;;;10.70;2.83;;;13.00;99.90;;;-146.41;100.00;57768.22;4969450;28;20101;-66
2022/06/09 01:17:17;;;;;;;7.20;3.50;;;13.00;99.90;;;-146.41;100.00;57768.22;4990545;28;20074;-67
2022/06/09 01:20:09;;;;;;;6.88;3.17;;;13.10;99.90;;;-146.41;100.00;57768.22;4989579;28;20149;-67
2022/06/09 01:23:06;;;;;;;7.68;3.28;;;13.00;99.90;;;-146.41;100.00;57768.22;4992164;28;20129;-66
2022/06/09 01:26:06;;;;;;;6.95;3.22;;;13.00;99.90;;;-146.41;100.00;57768.22;4994598;28;20165;-66
2022/06/09 01:29:06;;;;;;;9.32;3.90;;;13.00;99.90;;;-146.41;100.00;57768.22;4989699;28;20077;-65
2022/06/09 01:31:55;;;;;;;9.77;3.50;;;13.00;99.90;;;-146.41;100.00;57768.22;4977758;28;20125;-66
2022/06/09 01:34:59;;;;;;;9.40;3.50;;;13.00;99.90;;;-146.41;100.00;57768.22;4990432;28;20206;-66
2022/06/09 01:37:57;;;;;;;6.30;2.65;;;13.00;99.90;;;-146.41;100.00;57768.22;4973520;28;20165;-65
2022/06/09 01:40:25;;;;;;;3.58;1.95;;;13.00;99.90;;;-146.41;100.00;57768.22;4976753;28;20134;-66
2022/06/09 01:42:55;;;;;;;7.22;2.75;;;13.00;99.90;;;-146.41;100.00;57768.22;4992850;28;20137;-66
2022/06/09 01:45:31;;;;;;;7.35;2.70;;;13.10;99.90;;;-146.41;100.00;57768.22;4989614;28;21528;-63
2022/06/09 01:48:05;;;;;;;5.32;2.13;;;13.10;99.90;;;-146.41;100.00;57768.22;4990941;28;20050;-66
2022/06/09 01:50:43;;;;;;;9.30;2.90;;;13.10;99.90;;;-146.41;100.00;57768.22;4987531;28;20136;-65
2022/06/09 01:53:27;;;;;;;7.20;2.70;;;13.20;99.90;;;-146.41;100.00;57768.22;4989477;28;20134;-65
2022/06/09 01:56:43;;;;;;;5.18;2.15;;;13.10;99.90;;;-146.41;100.00;57768.22;4990509;28;20110;-64
2022/06/09 01:59:35;;;;;;;7.03;2.20;;;13.20;99.90;;;-146.41;100.00;57768.22;4989930;28;20132;-66
2022/06/09 02:02:13;;;;;;;8.15;2.30;;;13.20;99.90;;;-146.41;100.00;57768.22;4973880;28;20141;-66
2022/06/09 02:04:46;;;;;;;6.55;2.03;;;13.30;99.90;;;-146.41;100.00;57768.22;4971722;28;20074;-66
2022/06/09 02:07:15;;;;;;;5.97;2.22;;;13.30;99.90;;;-146.41;100.00;57768.22;4972371;28;20148;-67
2022/06/09 02:09:42;;;;;;;5.22;2.10;;;13.30;99.90;;;-146.41;100.00;57768.22;4970759;28;20153;-66
2022/06/09 02:12:17;;;;;;;11.35;2.55;;;13.30;99.90;;;-146.41;100.00;57768.22;4973596;28;20088;-66
2022/06/09 02:14:48;;;;;;;7.72;2.10;;;13.30;99.90;;;-146.41;100.00;57768.22;4986701;28;20046;-67
2022/06/09 02:17:16;;;;;;;4.45;1.73;;;13.20;99.90;;;-146.41;100.00;57768.22;4974244;28;20078;-65
2022/06/09 02:19:46;;;;;;;8.18;1.80;;;13.20;99.90;;;-146.41;100.00;57768.22;4991524;28;20126;-67
2022/06/09 02:22:14;;;;;;;6.93;2.05;;;13.10;99.90;;;-146.41;100.00;57768.22;4975355;28;20128;-66
2022/06/09 02:24:41;;;;;;;5.05;1.70;;;13.10;99.90;;;-146.41;100.00;57768.22;4979510;28;20098;-67
2022/06/09 02:27:09;;;;;;;6.78;2.08;;;13.10;99.90;;;-146.41;100.00;57768.22;4989073;28;20472;-66
2022/06/09 02:29:36;;;;;;;7.05;1.50;;;13.10;99.90;;;-146.41;100.00;57768.22;4990354;28;21598;-66
2022/06/09 02:32:04;;;;;;;7.47;1.63;;;13.00;99.90;;;-146.41;100.00;57768.22;4991380;28;20096;-65
2022/06/09 02:34:31;;;;;;;5.30;1.58;;;13.00;99.90;;;-146.41;100.00;57768.22;4987223;28;20520;-65
2022/06/09 02:36:58;;;;;;;7.97;1.30;;;13.00;99.90;;;-146.41;100.00;57768.22;4991581;28;20061;-66
2022/06/09 02:39:25;;;;;;;8.25;1.42;;;13.00;99.90;;;-146.41;100.00;57768.22;4993880;28;20377;-67
2022/06/09 02:41:52;;;;;;;6.07;1.63;;;13.00;99.90;;;-146.41;100.00;57768.22;4989700;28;20145;-65
2022/06/09 02:44:19;;;;;;;6.25;1.35;;;12.90;99.90;;;-146.41;100.00;57768.22;4986141;28;20141;-67
2022/06/09 02:46:46;;;;;;;10.55;1.65;;;12.90;99.90;;;-146.41;100.00;57768.22;4992079;28;20073;-66
2022/06/09 02:49:14;;;;;;;7.05;1.67;;;12.80;99.90;;;-146.41;100.00;57768.22;4995186;28;20054;-65
2022/06/09 02:51:42;;;;;;;7.13;1.50;;;12.70;99.90;;;-146.41;100.00;57768.22;4988835;28;20053;-65
2022/06/09 02:54:12;;;;;;;8.43;1.35;;;12.70;99.90;;;-146.41;100.00;57768.22;4993668;28;20089;-66
2022/06/09 02:56:42;;;;;;;10.88;1.60;;;12.70;99.90;;;-146.41;100.00;57768.22;4989620;28;20050;-66
2022/06/09 02:59:11;;;;;;;10.02;1.83;;;12.60;99.90;;;-146.41;100.00;57768.22;4991284;28;20073;-66
2022/06/09 03:01:38;;;;;;;9.00;1.60;;;12.60;99.90;;;-146.41;100.00;57768.22;4992161;28;20042;-66
2022/06/09 03:04:07;;;;;;;8.27;1.70;;;12.50;99.90;;;-146.41;100.00;57768.22;4991136;28;20523;-64
2022/06/09 03:06:35;;;;;;;9.18;2.47;;;12.50;99.90;;;-146.41;100.00;57768.22;4992703;28;20540;-66
2022/06/09 03:09:03;;;;;;;9.68;2.42;;;12.40;99.90;;;-146.41;100.00;57768.22;4971912;28;20073;-66
2022/06/09 03:11:30;;;;;;;8.43;2.17;;;12.40;99.90;;;-146.41;100.00;57768.22;4985868;28;20105;-66
2022/06/09 03:13:57;;;;;;;10.40;1.90;;;12.40;99.90;;;-146.41;100.00;57768.22;4990655;28;20064;-65
2022/06/09 03:16:25;;;;;;;10.85;2.60;;;12.40;99.90;;;-146.41;100.00;57768.22;4988209;28;20809;-66
2022/06/09 03:18:52;;;;;;;10.68;2.33;;;12.30;99.90;;;-146.41;100.00;57768.22;4988446;28;20060;-65
2022/06/09 03:21:19;;;;;;;8.82;2.67;;;12.30;99.90;;;-146.41;100.00;57768.22;4989739;28;20445;-65
2022/06/09 03:23:46;;;;;;;9.75;2.15;;;12.30;99.90;;;-146.41;100.00;57768.22;4992129;28;20133;-65
2022/06/09 03:26:13;;;;;;;9.35;2.65;;;12.20;99.90;;;-146.41;100.00;57768.22;4989356;28;20100;-66
2022/06/09 03:28:41;;;;;;;6.85;2.60;;;12.20;99.90;;;-146.41;100.00;57768.22;4989853;28;20153;-65
2022/06/09 03:31:08;;;;;;;11.32;3.30;;;12.20;99.90;;;-146.41;100.00;57768.22;4993723;28;20054;-64
2022/06/09 03:33:35;;;;;;;11.38;3.25;;;12.10;99.90;;;-146.41;100.00;57768.22;4988012;28;20385;-65
2022/06/09 03:36:03;;;;;;;10.45;3.53;;;12.10;99.90;;;-146.41;100.00;57768.22;4994289;28;20057;-66
2022/06/09 03:38:30;;;;;;;12.52;3.13;;;12.10;99.90;;;-146.41;100.00;57768.22;4988923;28;20050;-65
2022/06/09 03:40:57;;;;;;;10.13;3.30;;;12.10;99.90;;;-146.41;100.00;57768.22;4993224;28;20046;-65
2022/06/09 03:43:24;;;;;;;11.70;3.80;;;12.20;99.90;;;-146.41;100.00;57768.22;4990608;28;20130;-66
2022/06/09 03:45:52;;;;;;;21.27;3.90;;;12.10;99.90;;;-146.41;100.00;57768.22;4985674;28;20058;-66
2022/06/09 03:48:19;;;;;;;11.52;4.15;;;12.10;99.90;;;-146.41;100.00;57768.22;4988574;28;20070;-64
2022/06/09 03:50:46;;;;;;;12.68;3.92;;;12.10;99.90;;;-146.41;100.00;57768.22;4986472;28;20157;-66
2022/06/09 03:53:13;;;;;;;9.57;2.97;;;12.10;99.90;;;-146.41;100.00;57768.22;4988580;28;20170;-66
2022/06/09 03:55:40;;;;;;;11.32;3.28;;;12.10;99.90;;;-146.41;100.00;57768.22;4993006;28;20081;-66
2022/06/09 03:58:06;;;;;;;10.43;3.58;;;12.10;99.90;;;-146.41;100.00;57768.22;4987603;28;20086;-65
2022/06/09 04:00:34;;;;;;;9.95;3.53;;;12.10;99.90;;;-146.41;100.00;57768.22;4989429;28;20049;-65
2022/06/09 04:03:01;;;;;;;11.70;3.00;;;12.10;99.90;;;-146.41;100.00;57768.22;4994571;28;20479;-66
2022/06/09 04:05:30;;;;;;;9.15;2.80;;;12.10;99.90;;;-146.41;100.00;57768.22;4992403;28;20054;-67
2022/06/09 04:08:02;;;;;;;8.90;2.58;;;12.10;99.90;;;-146.41;100.00;57768.22;4989743;28;20122;-67
2022/06/09 04:10:32;;;;;;;6.57;2.20;;;12.10;99.90;;;-146.41;100.00;57768.22;4985344;28;20050;-66
2022/06/09 04:12:59;;;;;;;9.32;3.00;;;12.10;99.90;;;-146.41;100.00;57768.22;4984941;28;20066;-65
2022/06/09 04:15:27;;;;;;;9.95;2.63;;;12.10;99.90;;;-146.41;100.00;57768.22;4988476;28;20157;-66
2022/06/09 04:17:54;;;;;;;7.93;2.58;;;12.10;99.90;;;-146.41;100.00;57768.22;4987222;28;20557;-65
2022/06/09 04:20:25;;;;;;;9.05;1.90;;;12.20;99.90;;;-146.41;100.00;57768.22;4982867;28;20047;-66
2022/06/09 04:22:52;;;;;;;14.00;2.28;;;12.20;99.90;;;-146.41;100.00;57768.22;4983582;28;20069;-65
2022/06/09 04:25:20;;;;;;;11.45;2.03;;;12.20;99.90;;;-146.41;100.00;57768.22;4984373;28;20842;-66
2022/06/09 04:27:48;;;;;;;11.70;2.08;;;12.30;99.90;;;-146.41;100.00;57768.22;4988947;28;20512;-66
2022/06/09 04:30:15;;;;;;;17.00;1.98;;;12.20;99.90;;;-146.41;100.00;57768.22;4989972;28;20140;-67
2022/06/09 04:32:51;;;;;;;11.00;1.95;;;12.30;99.90;;;-146.41;100.00;57768.22;4991604;28;20049;-66
2022/06/09 04:35:18;;;;;;;11.25;2.28;;;12.30;99.90;;;-146.41;100.00;57768.22;4988003;28;20138;-66
2022/06/09 04:38:00;;;;;;;11.25;2.28;;;12.30;99.90;;;-146.41;100.00;57768.22;4988390;28;20477;-67
2022/06/09 04:40:39;;;;;;;13.75;2.00;;;12.40;99.90;;;-146.41;100.00;57768.22;4991468;28;20049;-65
2022/06/09 04:43:09;;;;;;;8.07;1.70;;;12.50;99.90;;;-146.41;100.00;57768.22;4992369;28;20149;-67
2022/06/09 04:45:40;;;;;;;8.90;1.88;;;12.50;99.90;;;-146.41;100.00;57768.22;4986684;28;20045;-66
2022/06/09 04:48:10;;;;;;;12.48;2.63;;;12.50;99.90;;;-146.41;100.00;57768.22;4984317;28;20073;-66
2022/06/09 04:50:40;;;;;;;15.52;2.65;;;12.50;99.90;;;-146.41;100.00;57768.22;4982838;28;20077;-67
2022/06/09 04:53:09;;;;;;;12.23;2.80;;;12.40;99.90;;;-146.41;100.00;57768.22;4990059;28;20141;-65
2022/06/09 04:55:38;;;;;;;12.80;2.67;;;12.40;99.90;;;-146.41;100.00;57768.22;4986234;28;20077;-66
2022/06/09 04:58:06;;;;;;;12.48;2.33;;;12.40;99.90;;;-146.41;100.00;57768.22;4987711;28;20129;-65
2022/06/09 05:00:33;;;;;;;13.18;2.80;;;12.40;99.90;;;-146.41;100.00;57768.22;4991381;28;20129;-65
2022/06/09 05:03:01;;;;;;;16.88;2.40;;;12.50;99.90;;;-146.41;100.00;57768.22;4988496;28;20175;-66
2022/06/09 05:05:33;;;;;;;17.05;2.58;;;12.50;99.90;;;-146.41;100.00;57768.22;4993876;28;20247;-62
2022/06/09 05:08:01;;;;;;;11.27;2.47;;;12.60;99.90;;;-146.41;100.00;57768.22;4995921;28;20101;-65
2022/06/09 05:10:28;;;;;;;11.75;2.10;;;12.70;99.90;;;-146.41;100.00;57768.22;4994025;28;20054;-65
2022/06/09 05:12:56;;;;;;;11.57;2.80;;;12.80;99.90;;;-146.41;100.00;57768.22;4997350;28;20068;-66
2022/06/09 05:15:24;;;;;;;8.48;2.17;;;12.80;99.90;;;-146.41;100.00;57768.22;4988218;28;20078;-65
2022/06/09 05:17:52;;;;;;;9.35;1.60;;;12.90;99.90;;;-146.41;100.00;57768.22;4995926;28;20607;-65
2022/06/09 05:20:23;;;;;;;11.57;1.92;;;12.80;99.90;;;-146.41;100.00;57768.22;4994695;28;20126;-65
2022/06/09 05:22:51;;;;;;;13.07;1.60;;;12.80;99.90;;;-146.41;100.00;57768.22;4994785;28;20092;-67
2022/06/09 05:25:19;;;;;;;9.45;1.63;;;12.80;99.90;;;-146.41;100.00;57768.22;4975471;28;20089;-66
2022/06/09 05:27:46;;;;;;;11.32;1.60;;;12.60;99.90;;;-146.41;100.00;57768.22;4995168;28;20129;-64
2022/06/09 05:30:19;;;;;;;13.63;1.80;;;12.60;99.90;;;-146.41;100.00;57768.22;4980522;28;20437;-66
2022/06/09 05:32:47;;;;;;;;;;;12.70;99.90;;;-146.41;100.00;57768.22;4989967;28;20074;-66
2022/06/09 05:35:14;;;;;;;11.70;2.05;;;12.70;99.90;;;-146.41;100.00;57768.22;4991512;28;20380;-66
2022/06/09 05:46:01;;;;;;;19.10;2.33;;;12.70;99.90;;;-146.41;100.00;57768.22;4996080;28;20112;-66
2022/06/09 05:48:29;;;;;;;13.20;1.95;;;12.70;99.90;;;-146.41;100.00;57768.22;4995662;28;20081;-65
2022/06/09 05:50:56;;;;;;;12.93;2.25;;;12.80;99.90;;;-146.41;100.00;57768.22;4993605;28;20050;-67
2022/06/09 05:53:23;;;;;;;9.25;1.98;;;12.80;99.90;;;-146.41;100.00;57768.22;4995963;28;20547;-66
2022/06/09 05:55:50;;;;;;;12.15;2.25;;;12.70;99.90;;;-146.41;100.00;57768.22;4998307;28;20062;-66
2022/06/09 05:58:17;;;;;;;13.40;1.95;;;12.70;99.90;;;-146.41;100.00;57768.22;4996798;28;20074;-66
2022/06/09 06:00:45;;;;;;;16.60;2.72;;;12.70;99.90;;;-146.41;100.00;57768.22;4995534;28;20074;-65
2022/06/09 06:03:15;;;;;;;19.83;2.50;;;12.70;99.90;;;-146.41;100.00;57768.22;4991939;28;20046;-66
2022/06/09 06:08:28;;;;;;;14.52;2.33;;;12.70;99.90;;;-146.41;100.00;57768.22;4989967;28;20491;-65
2022/06/09 06:10:56;;;;;;;12.35;2.33;;;12.80;99.90;;;-146.41;100.00;57768.22;4995966;28;20531;-67
2022/06/09 06:13:24;;;;;;;9.63;2.17;;;12.80;99.90;;;-146.41;100.00;57768.22;4996247;28;20054;-67
2022/06/09 06:15:51;;;;;;;13.82;1.98;;;12.90;99.90;;;-146.41;100.00;57768.22;4994322;28;20088;-67
2022/06/09 06:18:27;;;;;;;8.00;1.80;;;12.90;99.90;;;-146.41;100.00;57768.22;4996856;28;20053;-65
2022/06/09 06:20:55;;;;;;;12.40;2.28;;;13.00;99.90;;;-146.41;100.00;57768.22;4993971;28;20132;-67
2022/06/09 06:23:23;;;;;;;17.48;1.90;;;12.90;99.90;;;-146.41;100.00;57768.22;4993071;28;20133;-66
2022/06/09 06:25:53;;;;;;;16.77;2.67;;;12.80;99.90;;;-146.41;100.00;57768.22;4995269;28;20046;-66
2022/06/09 06:28:21;;;;;;;18.20;3.90;;;12.80;99.90;;;-146.41;100.00;57768.22;4996613;28;20054;-66
2022/06/09 06:30:54;;;;;;;9.55;2.58;;;12.70;99.90;;;-146.41;100.00;57768.22;4992796;28;20153;-66
2022/06/09 06:33:22;;;;;;;13.77;2.35;;;12.70;99.90;;;-146.41;100.00;57768.22;4994917;28;20596;-66
2022/06/09 06:35:50;;;;;;;8.90;1.90;;;12.80;99.90;;;-146.41;100.00;57768.22;4991283;28;20456;-65
2022/06/09 06:38:17;;;;;;;13.52;2.00;;;12.90;99.90;;;-146.41;100.00;57768.22;4989556;28;20093;-65
2022/06/09 06:40:45;;;;;;;9.98;2.13;;;12.90;99.90;;;-146.41;100.00;57768.22;4985479;28;20061;-66
2022/06/09 06:43:12;;;;;;;10.70;2.05;;;13.00;99.90;;;-146.41;100.00;57768.22;4987329;28;20112;-66
2022/06/09 06:45:40;;;;;;;10.88;1.90;;;13.00;99.90;;;-146.41;100.00;57768.22;4991712;28;20078;-65
2022/06/09 06:48:08;;;;;;;11.98;1.80;;;13.00;99.90;;;-146.41;100.00;57768.22;4989112;28;20042;-63
2022/06/09 06:50:35;;;;;;;11.07;2.03;;;13.00;99.90;;;-146.41;100.00;57768.22;4988824;28;20462;-64
2022/06/09 06:53:02;;;;;;;12.85;1.95;;;13.10;99.90;;;-146.41;100.00;57768.22;4988632;28;20060;-65
2022/06/09 06:55:29;;;;;;;10.32;1.83;;;13.20;99.90;;;-146.41;100.00;57768.22;5003203;28;20053;-64
2022/06/09 06:58:01;;;;;;;12.65;1.83;;;13.20;99.90;;;-146.41;100.00;57768.22;5006705;28;20042;-64
2022/06/09 07:00:28;;;;;;;12.65;1.52;;;13.30;99.90;;;-146.41;100.00;57768.22;5007441;28;20535;-65
2022/06/09 07:02:55;;;;;;;8.00;1.38;;;13.30;99.90;;;-146.41;100.00;57768.22;5007590;28;20038;-65
2022/06/09 07:05:42;;;;;;;12.10;1.60;;;13.40;99.90;;;-146.41;100.00;57768.22;5009527;28;20129;-65
2022/06/09 07:08:09;;;;;;;10.40;1.63;;;13.60;99.90;;;-146.41;100.00;57768.22;5010550;28;20536;-65
2022/06/09 07:10:36;;;;;;;12.57;1.75;;;13.60;99.90;;;-146.41;100.00;57768.22;5007661;28;20132;-65
2022/06/09 07:13:03;;;;;;;8.93;1.30;;;13.60;99.90;;;-146.41;100.00;57768.22;5006297;28;20054;-64
2022/06/09 07:15:31;;;;;;;7.97;1.48;;;13.70;99.90;;;-146.41;100.00;57768.22;5007591;28;20200;-65
2022/06/09 07:17:58;;;;;;;6.93;1.42;;;13.90;99.90;;;-146.41;100.00;57768.22;5005594;28;20140;-65
2022/06/09 07:20:25;;;;;;;8.48;1.70;;;14.00;99.90;;;-146.41;100.00;57768.22;5009009;28;20123;-64
2022/06/09 07:22:53;;;;;;;11.73;1.95;;;14.00;99.90;;;-146.41;100.00;57768.22;5013488;28;20415;-66
2022/06/09 07:25:23;;;;;;;8.65;2.10;;;14.10;99.90;;;-146.41;100.00;57768.22;4993782;28;20704;-65
2022/06/09 07:27:53;;;;;;;10.20;1.30;;;14.10;99.90;;;-146.41;100.00;57768.22;5008777;28;20108;-66
2022/06/09 07:30:23;;;;;;;9.02;1.63;;;14.10;99.90;;;-146.41;100.00;57768.22;5008765;28;20061;-65
2022/06/09 07:32:50;;;;;;;14.80;2.03;;;14.10;99.90;;;-146.41;100.00;57768.22;5007776;28;20060;-66
2022/06/09 07:35:22;;;;;;;7.78;1.20;;;14.10;99.90;;;-146.41;100.00;57768.22;5009714;28;20066;-66
2022/06/09 07:37:50;;;;;;;10.02;1.63;;;14.30;99.90;;;-146.41;100.00;57768.22;4993124;28;20133;-66
2022/06/09 07:40:18;;;;;;;10.07;1.52;;;14.30;99.90;;;-146.41;100.00;57768.22;5010067;28;20080;-63
2022/06/09 07:42:45;;;;;;;13.75;2.05;;;14.30;99.90;;;-146.41;100.00;57768.22;4987712;28;20210;-64
2022/06/09 07:45:12;;;;;;;10.38;1.73;;;14.40;99.90;;;-146.41;100.00;57768.22;5007467;28;20049;-65
2022/06/09 07:47:39;;;;;;;10.52;1.60;;;14.40;99.90;;;-146.41;100.00;57768.22;5008668;28;20133;-66
2022/06/09 07:50:09;;;;;;;8.68;2.00;;;14.40;99.90;;;-146.41;100.00;57768.22;5005899;28;20252;-66
2022/06/09 07:52:44;;;;;;;8.75;1.60;;;14.50;99.90;;;-146.41;100.00;57768.22;5006086;28;20049;-64
2022/06/09 07:55:12;;;;;;;14.57;1.48;;;14.70;99.90;;;-146.41;100.00;57768.22;5006300;28;20557;-65
2022/06/09 07:57:39;;;;;;;11.85;1.63;;;14.70;99.90;;;-146.41;100.00;57768.22;5007852;28;20140;-66
2022/06/09 08:00:14;;;;;;;9.75;1.17;;;14.80;99.90;;;-146.41;100.00;57768.22;5009612;28;20074;-65
2022/06/09 08:02:43;;;;;;;14.90;1.80;;;14.80;99.90;;;-146.41;100.00;57768.22;5007473;28;20069;-66
2022/06/09 08:05:13;;;;;;;12.93;2.10;;;14.80;99.90;;;-146.41;100.00;57768.22;5007005;28;20057;-65
2022/06/09 08:07:41;;;;;;;7.47;1.77;;;14.70;99.90;;;-146.41;100.00;57768.22;5006034;28;20130;-67
2022/06/09 08:10:14;;;;;;;12.82;1.83;;;14.60;99.90;;;-146.41;100.00;57768.22;5007837;28;20061;-66
2022/06/09 08:12:41;;;;;;;;;;;14.70;99.90;;;-146.41;100.00;57768.22;5006089;28;20124;-66
2022/06/09 08:15:08;;;;;;;13.90;2.83;;;14.90;99.90;;;-146.41;100.00;57768.22;5007475;28;19965;-66
2022/06/09 08:17:36;;;;;;;13.30;2.05;;;15.00;99.90;;;-146.41;100.00;57768.22;5004792;28;20393;-66
2022/06/09 08:20:05;;;;;;;8.93;2.00;;;14.90;99.90;;;-146.41;100.00;57768.22;5006099;28;20434;-65
2022/06/09 08:22:33;;;;;;;15.20;1.92;;;14.80;99.90;;;-146.41;100.00;57768.22;5005817;28;20129;-64
2022/06/09 08:25:00;;;;;;;13.10;1.98;;;14.70;99.90;;;-146.41;100.00;57768.22;4990110;28;20633;-64
2022/06/09 08:27:27;;;;;;;11.98;2.25;;;14.80;99.90;;;-146.41;100.00;57768.22;5011692;28;20085;-65
2022/06/09 08:29:54;;;;;;;9.82;1.63;;;14.90;99.90;;;-146.41;100.00;57768.22;5014746;28;20125;-65
2022/06/09 08:32:22;;;;;;;9.60;1.48;;;15.00;99.90;;;-146.41;100.00;57768.22;5012526;28;20046;-65
2022/06/09 08:34:49;;;;;;;8.57;1.13;;;15.10;99.90;;;-146.41;100.00;57768.22;5014747;28;20084;-65
2022/06/09 08:37:16;;;;;;;13.75;1.77;;;15.20;99.90;;;-146.41;100.00;57768.22;5006662;28;20529;-64
2022/06/09 08:39:43;;;;;;;11.52;1.77;;;15.30;99.90;;;-146.41;100.00;57768.22;4988405;28;20764;-66
2022/06/09 08:42:24;;;;;;;7.15;1.35;;;15.30;99.90;;;-146.41;100.00;57768.22;5010019;28;20046;-65
2022/06/09 08:44:56;;;;;;;9.98;1.35;;;15.40;99.90;;;-146.41;100.00;57768.22;5009835;28;20137;-65
2022/06/09 08:47:35;;;;;;;;;;;15.40;99.90;;;-146.41;100.00;57768.22;5010264;28;20050;-67
2022/06/09 08:50:22;;;;;;;12.90;1.55;;;15.70;99.90;;;-146.41;100.00;57768.22;4981965;28;20020;-66
2022/06/09 08:53:05;;;;;;;11.25;1.85;;;15.90;99.90;;;-146.41;100.00;57768.22;5012337;28;20436;-67
2022/06/09 08:55:56;;;;;;;11.23;1.40;;;16.20;99.90;;;-146.41;100.00;57768.22;4991157;28;20088;-67
2022/06/09 08:58:40;;;;;;;10.93;1.50;;;16.30;99.90;;;-146.41;100.00;57768.22;4995512;28;20081;-66
2022/06/09 09:01:10;;;;;;;9.40;1.58;;;16.20;99.90;;;-146.41;100.00;57768.22;5010720;28;20869;-66
2022/06/09 09:03:41;;;;;;;14.13;1.90;;;16.20;99.90;;;-146.41;100.00;57768.22;5005536;28;20459;-65
2022/06/09 09:06:42;;;;;;;12.35;1.40;;;16.20;99.90;;;-146.41;100.00;57768.22;4988216;28;20627;-65
2022/06/09 09:09:22;;;;;;;11.90;1.93;;;16.00;99.90;;;-146.41;100.00;57768.22;4965118;28;20058;-64
2022/06/09 09:12:34;;;;;;;6.43;1.13;;;16.10;99.90;;;-146.41;100.00;57768.22;4991533;28;20443;-65
2022/06/09 09:15:32;;;;;;;10.48;1.40;;;16.10;99.90;;;-146.41;100.00;57768.22;4872881;29;20080;-66
2022/06/09 09:18:38;;;;;;;19.60;2.75;;;15.90;99.90;;;-146.41;100.00;57768.22;4890842;29;20463;-65
2022/06/09 09:21:38;;;;;;;13.40;1.55;;;16.00;99.90;;;-146.41;100.00;57768.22;4987558;28;20053;-66
2022/06/09 09:24:31;;;;;;;9.07;1.55;;;16.20;99.90;;;-146.41;100.00;57768.22;5007654;28;20136;-65
2022/06/09 09:27:26;;;;;;;9.60;1.50;;;16.50;99.90;;;-146.41;100.00;57768.22;5012856;28;20140;-66
2022/06/09 09:30:18;;;;;;;10.45;1.52;;;;;;;-146.41;100.00;57768.22;4989613;28;20145;-66
2022/06/09 09:32:54;;;;;;;9.88;1.70;;;16.80;99.90;;;-146.41;100.00;57768.22;5005723;28;20563;-66
2022/06/09 09:35:35;;;;;;;11.13;1.58;;;16.90;99.90;;;-146.41;100.00;57768.22;5010117;28;20141;-67
2022/06/09 09:38:03;;;;;;;13.68;1.52;;;17.10;99.90;;;-146.41;100.00;57768.22;5011908;28;20077;-66
2022/06/09 09:40:37;;;;;;;8.77;1.85;;;17.30;99.90;;;-146.41;100.00;57768.22;5015662;28;20126;-66
2022/06/09 09:43:26;;;;;;;10.70;1.27;;;17.40;99.90;;;-146.41;100.00;57768.22;5003854;28;20069;-66
2022/06/09 09:45:56;;;;;;;9.80;1.48;;;17.50;99.90;;;-146.41;100.00;57768.22;4986403;28;20081;-66
2022/06/09 09:48:23;;;;;;;13.98;1.45;;;18.00;99.90;;;-146.41;100.00;57768.22;4994440;28;20050;-65
2022/06/09 09:50:59;;;;;;;12.38;1.30;;;;;;;-146.41;100.00;57768.22;5004318;28;20375;-64
2022/06/09 09:53:55;;;;;;;10.35;1.75;;;18.40;99.90;;;-146.41;100.00;57768.22;5005433;28;20083;-66
2022/06/09 09:56:36;;;;;;;9.65;1.65;;;18.10;99.90;;;-146.41;100.00;57768.22;5005651;28;20753;-66
2022/06/09 09:59:25;;;;;;;10.68;1.27;;;18.10;99.90;;;-146.41;100.00;57768.22;5005367;28;20050;-64
2022/06/09 10:08:41;;;;;;;9.20;1.20;;;19.30;99.90;;;-146.41;100.00;57768.22;4992752;28;20054;-66
2022/06/09 10:11:54;;;;;;;6.72;1.08;;;19.40;99.90;;;-146.41;100.00;57768.22;4995708;28;20044;-66
2022/06/09 10:14:49;;;;;;;8.68;1.00;;;19.40;99.90;;;-146.41;100.00;57768.22;4992939;28;20132;-66
2022/06/09 10:17:46;;;;;;;6.30;1.10;;;19.70;99.90;;;-146.41;100.00;57768.22;5004465;28;20073;-64
2022/06/09 10:20:43;;;;;;;6.30;0.90;;;20.00;99.90;;;-146.41;100.00;57768.22;5005918;28;20049;-66
2022/06/09 10:23:10;;;;;;;10.95;1.15;;;20.50;99.90;;;-146.41;100.00;57768.22;5009445;28;20090;-64
2022/06/09 10:25:52;;;;;;;10.23;1.33;;;20.70;99.90;;;-146.41;100.00;57768.22;5007747;28;20050;-65
2022/06/09 10:28:46;;;;;;;10.47;0.93;;;21.00;99.90;;;-146.41;100.00;57768.22;4994761;28;20128;-65
2022/06/09 10:31:28;;;;;;;6.88;0.90;;;20.90;99.90;;;-146.41;100.00;57768.22;5007083;28;20084;-65
2022/06/09 10:33:59;;;;;;;8.38;1.30;;;20.20;99.90;;;-146.41;100.00;57768.22;5006046;28;20811;-64
2022/06/09 10:36:56;;;;;;;5.75;1.13;;;19.90;99.90;;;-146.41;100.00;57768.22;4991978;28;20049;-65
2022/06/09 10:40:03;;;;;;;12.88;2.83;;;19.80;99.90;;;-146.41;100.00;57768.22;4990552;28;20058;-66